Aérodrome :
LOGIN :

S'inscrire | Disclaimer

   EN    FR    IT 

 










Légende :    VFR   VFR Marginal   IFR   IFR Intensif   IFR Très Intensif
Visi : 
Plafond : 
>= 8 km
>= 3000ft
5 à 8 km
1000 à 3000 ft
1500m à 5 km
500 à 1000 ft
800 à 1500m
200 à 500 ft
< 800m
< 200 ft
Symboles :   Orages  Brouillard  Fortes neiges  Fortes précipitations  Vent > 20 kt
SIGMETs :   Divers  Orages  Givrage  Turbulence  Onde Orograph.  Cendres Volcan.







- Altitude de l'aérodrome : -11 ft
- Code IATA : AMS


EHAM - Amsterdam Schiphol

DERNIER METAR :
  • 231525Z 27008KT 200V310 CAVOK 20/07 Q1016 NOSIG

METARs EXPIRÉS :
  • 231455Z 28009KT 240V320 CAVOK 19/06 Q1016 NOSIG
  • 231425Z 26009KT 230V310 CAVOK 19/05 Q1017 NOSIG
  • 231355Z 27011KT 230V300 CAVOK 19/03 Q1017 NOSIG
  • 231325Z 27014KT 230V300 CAVOK 19/02 Q1017 NOSIG
  • 231255Z 28013KT 250V310 CAVOK 20/06 Q1017 NOSIG

TAF TAF EHAM
Valide du 23 à 12h jusqu'au 24 à 18h UTC


231103Z 2312/2418 25010KT CAVOK
BECMG 2316/2319 20005KT
BECMG 2409/2412 30012KT
Pas de NOTAMs connus pour ce terrain.



MET'MAP, la Météo Aéronautique d'un coup d'oeil ! - Copyright ORBIFLY Décembre 2007 - Disclaimer

ORBIFLY MET'MAP TEAM :

Programmation & Développement : Alexandra Zaïnal
Conception & Développement : Baudouin d'Aumeries
Co-Programmation & Développement : Marc-Olivier Méhu
Soutien technique & logistique : Manuel Goepfert

Contact : metmap@orbifly.com




SOURCES & CREDITS :

   NOAA